Wetterdaten: Woche 15.08.16 - 21.08.16 (KW33)
Datum Zeit Temp. A. Feuchte A. Luftdruck Regen Wind Richtung Sonnenschein ET UV Solar Taupunkt Windchill Windben Empfang
15.08.2016 00:00 18,1 C 88 % 1019,1 hPa 0,0 l/m 2,5 km/h (1 Bft) S 0,00 h 0,000 mm 0,0 UV-I 0 W/m 16,2 C 18,1 C 3,7 km/h (1 Bft) 98,43 %
15.08.2016 01:00 17,1 C 92 % 1019,3 hPa 0,0 l/m 3,8 km/h (1 Bft) S 0,00 h 0,000 mm 0,0 UV-I 0 W/m 15,7 C 17,0 C 5,8 km/h (2 Bft) 99,53 %
15.08.2016 02:00 16,4 C 93 % 1019,3 hPa 0,0 l/m 2,4 km/h (1 Bft) O-NO 0,00 h 0,000 mm 0,0 UV-I 0 W/m 15,3 C 16,4 C 3,9 km/h (1 Bft) 98,26 %
15.08.2016 03:00 16,3 C 94 % 1019,1 hPa 0,0 l/m 1,8 km/h (1 Bft) O 0,00 h 0,000 mm 0,0 UV-I 0 W/m 15,3 C 16,3 C 3,3 km/h (1 Bft) 98,87 %
15.08.2016 04:00 16,0 C 94 % 1019,1 hPa 0,0 l/m 1,0 km/h (0 Bft) O 0,00 h 0,000 mm 0,0 UV-I 0 W/m 15,1 C 16,0 C 2,2 km/h (1 Bft) 98,06 %
15.08.2016 05:00 15,6 C 94 % 1019,1 hPa 0,0 l/m 1,0 km/h (0 Bft) O 0,00 h 0,000 mm 0,0 UV-I 5 W/m 14,7 C 15,6 C 2,1 km/h (1 Bft) 99,46 %
15.08.2016 06:00 15,7 C 94 % 1019,4 hPa 0,0 l/m 1,2 km/h (1 Bft) O-NO 0,63 h 0,000 mm 0,0 UV-I 42 W/m 14,7 C 15,7 C 2,6 km/h (1 Bft) 98,07 %
15.08.2016 07:00 17,2 C 88 % 1019,5 hPa 0,0 l/m 5,4 km/h (1 Bft) NO 0,67 h 0,025 mm 0,4 UV-I 145 W/m 15,1 C 17,1 C 8,9 km/h (2 Bft) 99,21 %
15.08.2016 08:00 18,6 C 80 % 1019,6 hPa 0,0 l/m 10,2 km/h (2 Bft) NO 0,87 h 0,102 mm 0,9 UV-I 267 W/m 15,1 C 17,1 C 16,0 km/h (3 Bft) 98,25 %
15.08.2016 09:00 20,1 C 74 % 1019,6 hPa 0,0 l/m 14,1 km/h (3 Bft) O-NO 1,00 h 0,178 mm 1,9 UV-I 452 W/m 15,3 C 17,6 C 20,8 km/h (4 Bft) 98,67 %
15.08.2016 10:00 21,3 C 72 % 1019,4 hPa 0,0 l/m 14,2 km/h (3 Bft) NO 1,00 h 0,305 mm 3,2 UV-I 618 W/m 16,1 C 19,0 C 20,6 km/h (4 Bft) 98,49 %
15.08.2016 11:00 22,5 C 68 % 1019,2 hPa 0,0 l/m 13,0 km/h (3 Bft) NO 0,97 h 0,406 mm 3,9 UV-I 640 W/m 16,2 C 20,7 C 19,9 km/h (4 Bft) 98,23 %
15.08.2016 12:00 22,6 C 66 % 1018,9 hPa 0,0 l/m 11,7 km/h (2 Bft) O-NO 0,90 h 0,432 mm 3,9 UV-I 544 W/m 15,8 C 21,1 C 18,0 km/h (3 Bft) 98,42 %
15.08.2016 13:00 23,4 C 63 % 1018,4 hPa 0,0 l/m 9,2 km/h (2 Bft) O-NO 0,83 h 0,381 mm 4,1 UV-I 600 W/m 16,0 C 22,7 C 14,8 km/h (3 Bft) 99,03 %
15.08.2016 14:00 23,7 C 62 % 1017,9 hPa 0,0 l/m 5,0 km/h (1 Bft) O-NO 0,53 h 0,406 mm 3,1 UV-I 434 W/m 16,0 C 23,6 C 9,2 km/h (2 Bft) 99,11 %
15.08.2016 15:00 23,9 C 61 % 1017,5 hPa 0,0 l/m 3,3 km/h (1 Bft) SO 0,70 h 0,305 mm 2,9 UV-I 510 W/m 15,8 C 23,9 C 6,5 km/h (2 Bft) 98,42 %
15.08.2016 16:00 24,7 C 59 % 1017,3 hPa 0,0 l/m 3,8 km/h (1 Bft) S-SO 0,83 h 0,330 mm 2,2 UV-I 485 W/m 16,2 C 24,6 C 7,7 km/h (2 Bft) 99,19 %
15.08.2016 17:00 24,0 C 63 % 1017,1 hPa 0,0 l/m 3,5 km/h (1 Bft) S-SO 0,27 h 0,305 mm 0,8 UV-I 221 W/m 16,4 C 24,0 C 6,3 km/h (2 Bft) 98,46 %
15.08.2016 18:00 23,2 C 67 % 1016,9 hPa 0,0 l/m 11,6 km/h (2 Bft) O-NO 0,17 h 0,152 mm 0,3 UV-I 113 W/m 16,7 C 21,8 C 17,2 km/h (3 Bft) 99,04 %
15.08.2016 19:00 21,7 C 72 % 1016,9 hPa 0,0 l/m 7,9 km/h (2 Bft) O-NO 0,00 h 0,127 mm 0,0 UV-I 37 W/m 16,3 C 21,2 C 11,8 km/h (2 Bft) 97,85 %
15.08.2016 20:00 20,2 C 77 % 1016,9 hPa 0,0 l/m 4,8 km/h (1 Bft) O-NO 0,07 h 0,051 mm 0,0 UV-I 9 W/m 16,1 C 20,1 C 7,1 km/h (2 Bft) 99,09 %
15.08.2016 21:00 18,4 C 85 % 1017,3 hPa 0,0 l/m 2,0 km/h (1 Bft) NO 0,00 h 0,026 mm 0,0 UV-I 0 W/m 15,8 C 18,4 C 3,6 km/h (1 Bft) 98,03 %
15.08.2016 22:00 17,7 C 90 % 1017,4 hPa 0,0 l/m 1,8 km/h (1 Bft) NO 0,00 h 0,000 mm 0,0 UV-I 0 W/m 16,0 C 17,7 C 3,0 km/h (1 Bft) 99,26 %
15.08.2016 23:00 17,1 C 90 % 1017,3 hPa 0,0 l/m 0,9 km/h (0 Bft) O 0,00 h 0,000 mm 0,0 UV-I 0 W/m 15,4 C 17,1 C 1,8 km/h (1 Bft) 98,16 %
16.08.2016 00:00 16,0 C 93 % 1017,2 hPa 0,0 l/m 1,8 km/h (1 Bft) O-SO 0,00 h 0,000 mm 0,0 UV-I 0 W/m 14,8 C 16,0 C 3,2 km/h (1 Bft) 99,41 %
16.08.2016 01:00 15,4 C 94 % 1016,9 hPa 0,0 l/m 0,4 km/h (0 Bft) S 0,00 h 0,000 mm 0,0 UV-I 0 W/m 14,5 C 15,4 C 1,1 km/h (1 Bft) 98,37 %
16.08.2016 02:00 14,8 C 95 % 1016,8 hPa 0,0 l/m 0,8 km/h (0 Bft) S 0,00 h 0,000 mm 0,0 UV-I 0 W/m 14,0 C 14,8 C 1,5 km/h (1 Bft) 98,68 %
16.08.2016 03:00 14,5 C 95 % 1016,7 hPa 0,0 l/m 0,5 km/h (0 Bft) S 0,00 h 0,000 mm 0,0 UV-I 0 W/m 13,8 C 14,5 C 1,5 km/h (1 Bft) 97,94 %
16.08.2016 04:00 14,2 C 96 % 1016,4 hPa 0,0 l/m 0,5 km/h (0 Bft) S 0,00 h 0,000 mm 0,0 UV-I 0 W/m 13,5 C 14,2 C 1,3 km/h (1 Bft) 99,53 %
16.08.2016 05:00 13,7 C 96 % 1016,2 hPa 0,0 l/m 0,0 km/h (0 Bft) N 0,00 h 0,000 mm 0,0 UV-I 0 W/m 13,1 C 13,7 C 0,1 km/h (0 Bft) 97,79 %
16.08.2016 06:00 13,8 C 97 % 1016,3 hPa 0,0 l/m 0,3 km/h (0 Bft) S 0,00 h 0,000 mm 0,0 UV-I 25 W/m 13,4 C 13,8 C 0,8 km/h (0 Bft) 98,62 %
16.08.2016 07:00 15,0 C 97 % 1016,2 hPa 0,0 l/m 1,0 km/h (0 Bft) S-SO 0,00 h 0,025 mm 0,0 UV-I 78 W/m 14,6 C 15,0 C 2,6 km/h (1 Bft) 98,31 %
16.08.2016 08:00 16,4 C 95 % 1016,1 hPa 0,0 l/m 2,9 km/h (1 Bft) O-NO 0,00 h 0,051 mm 0,6 UV-I 156 W/m 15,6 C 16,4 C 5,0 km/h (1 Bft) 99,14 %
16.08.2016 09:00 17,7 C 91 % 1016,1 hPa 0,0 l/m 4,7 km/h (1 Bft) O-NO 0,30 h 0,076 mm 1,5 UV-I 285 W/m 16,3 C 17,6 C 7,8 km/h (2 Bft) 98,29 %
16.08.2016 10:00 18,9 C 88 % 1015,9 hPa 0,0 l/m 2,9 km/h (1 Bft) S-SO 0,47 h 0,153 mm 2,7 UV-I 427 W/m 16,9 C 18,9 C 6,0 km/h (2 Bft) 99,59 %
16.08.2016 11:00 21,5 C 78 % 1015,5 hPa 0,0 l/m 2,8 km/h (1 Bft) NO 1,00 h 0,254 mm 4,5 UV-I 720 W/m 17,4 C 21,5 C 5,7 km/h (1 Bft) 98,48 %
16.08.2016 12:00 23,1 C 68 % 1015,0 hPa 0,0 l/m 3,5 km/h (1 Bft) NO 1,00 h 0,432 mm 5,4 UV-I 783 W/m 16,9 C 23,1 C 6,8 km/h (2 Bft) 99,35 %
16.08.2016 13:00 24,5 C 60 % 1014,4 hPa 0,0 l/m 4,5 km/h (1 Bft) N-NO 1,00 h 0,482 mm 5,4 UV-I 790 W/m 16,2 C 24,4 C 8,6 km/h (2 Bft) 98,53 %
16.08.2016 14:00 25,2 C 55 % 1013,9 hPa 0,0 l/m 3,9 km/h (1 Bft) NO 0,87 h 0,508 mm 4,4 UV-I 705 W/m 15,4 C 25,1 C 8,2 km/h (2 Bft) 99,69 %
16.08.2016 15:00 25,6 C 54 % 1013,0 hPa 0,0 l/m 4,7 km/h (1 Bft) O 1,00 h 0,483 mm 3,6 UV-I 709 W/m 15,5 C 25,5 C 8,4 km/h (2 Bft) 98,33 %
16.08.2016 16:00 25,9 C 51 % 1012,3 hPa 0,0 l/m 2,9 km/h (1 Bft) NW 0,83 h 0,457 mm 2,3 UV-I 487 W/m 14,9 C 25,9 C 6,3 km/h (2 Bft) 99,38 %
16.08.2016 17:00 25,8 C 49 % 1011,7 hPa 0,0 l/m 4,0 km/h (1 Bft) W 0,83 h 0,330 mm 1,2 UV-I 356 W/m 14,2 C 25,8 C 8,1 km/h (2 Bft) 98,34 %
16.08.2016 18:00 25,1 C 51 % 1011,1 hPa 0,0 l/m 3,4 km/h (1 Bft) N-NW 1,00 h 0,254 mm 0,6 UV-I 203 W/m 14,3 C 25,1 C 7,6 km/h (2 Bft) 99,01 %
16.08.2016 19:00 23,5 C 58 % 1010,9 hPa 0,0 l/m 0,8 km/h (0 Bft) N-NW 0,07 h 0,153 mm 0,0 UV-I 52 W/m 14,6 C 23,5 C 2,2 km/h (1 Bft) 98,46 %
16.08.2016 20:00 20,5 C 74 % 1010,9 hPa 0,0 l/m 0,1 km/h (0 Bft) N 0,10 h 0,050 mm 0,0 UV-I 9 W/m 15,7 C 20,5 C 0,3 km/h (0 Bft) 98,99 %
16.08.2016 21:00 19,8 C 74 % 1011,0 hPa 0,0 l/m 3,1 km/h (1 Bft) NO 0,00 h 0,000 mm 0,0 UV-I 0 W/m 15,1 C 19,8 C 4,9 km/h (1 Bft) 98,32 %
16.08.2016 22:00 18,8 C 77 % 1010,9 hPa 0,0 l/m 1,8 km/h (1 Bft) O-NO 0,00 h 0,026 mm 0,0 UV-I 0 W/m 14,6 C 18,8 C 3,2 km/h (1 Bft) 99,36 %
16.08.2016 23:00 17,9 C 80 % 1010,6 hPa 0,0 l/m 2,1 km/h (1 Bft) O-NO 0,00 h 0,000 mm 0,0 UV-I 0 W/m 14,3 C 17,9 C 3,5 km/h (1 Bft) 98,45 %
17.08.2016 00:00 17,0 C 82 % 1010,5 hPa 0,0 l/m 2,6 km/h (1 Bft) NO 0,00 h 0,000 mm 0,0 UV-I 0 W/m 13,9 C 17,0 C 4,6 km/h (1 Bft) 99,06 %
17.08.2016 01:00 16,6 C 83 % 1010,5 hPa 0,0 l/m 2,4 km/h (1 Bft) N-NO 0,00 h 0,000 mm 0,0 UV-I 0 W/m 13,7 C 16,6 C 4,5 km/h (1 Bft) 98,36 %
17.08.2016 02:00 16,2 C 85 % 1010,5 hPa 0,0 l/m 1,7 km/h (1 Bft) N-NO 0,00 h 0,000 mm 0,0 UV-I 0 W/m 13,6 C 16,2 C 2,9 km/h (1 Bft) 99,25 %
17.08.2016 03:00 15,8 C 86 % 1010,4 hPa 0,0 l/m 1,5 km/h (1 Bft) N-NO 0,00 h 0,000 mm 0,0 UV-I 0 W/m 13,4 C 15,8 C 2,5 km/h (1 Bft) 98,23 %
17.08.2016 04:00 15,5 C 88 % 1010,7 hPa 0,0 l/m 1,2 km/h (1 Bft) SO 0,00 h 0,000 mm 0,0 UV-I 0 W/m 13,5 C 15,5 C 2,4 km/h (1 Bft) 99,13 %
17.08.2016 05:00 15,7 C 88 % 1010,9 hPa 0,0 l/m 0,0 km/h (0 Bft) N 0,00 h 0,000 mm 0,0 UV-I 4 W/m 13,8 C 15,7 C 0,4 km/h (0 Bft) 97,78 %
17.08.2016 06:00 15,7 C 89 % 1011,0 hPa 0,0 l/m 0,0 km/h (0 Bft) N 0,07 h 0,000 mm 0,0 UV-I 16 W/m 13,8 C 15,7 C 0,0 km/h (0 Bft) 99,52 %
17.08.2016 07:00 16,2 C 78 % 1011,3 hPa 0,0 l/m 4,7 km/h (1 Bft) NO 0,00 h 0,000 mm 0,0 UV-I 80 W/m 12,4 C 16,1 C 8,4 km/h (2 Bft) 97,86 %
17.08.2016 08:00 16,8 C 69 % 1011,4 hPa 0,0 l/m 6,3 km/h (2 Bft) NO 0,37 h 0,051 mm 0,9 UV-I 178 W/m 11,1 C 16,5 C 10,7 km/h (2 Bft) 98,86 %
17.08.2016 09:00 18,5 C 63 % 1011,6 hPa 0,0 l/m 9,4 km/h (2 Bft) O-NO 1,00 h 0,127 mm 1,9 UV-I 464 W/m 11,3 C 17,2 C 14,9 km/h (3 Bft) 98,59 %
17.08.2016 10:00 19,4 C 61 % 1011,8 hPa 0,0 l/m 8,8 km/h (2 Bft) NO 0,80 h 0,305 mm 2,9 UV-I 564 W/m 11,7 C 18,4 C 14,7 km/h (3 Bft) 98,99 %
17.08.2016 11:00 20,3 C 55 % 1011,9 hPa 0,0 l/m 8,3 km/h (2 Bft) N-NO 0,97 h 0,355 mm 4,1 UV-I 729 W/m 10,9 C 19,5 C 15,1 km/h (3 Bft) 98,74 %
17.08.2016 12:00 20,8 C 53 % 1011,7 hPa 0,0 l/m 5,9 km/h (2 Bft) O-NO 1,00 h 0,457 mm 5,0 UV-I 789 W/m 11,0 C 20,5 C 11,0 km/h (2 Bft) 98,72 %
17.08.2016 13:00 21,9 C 53 % 1011,4 hPa 0,0 l/m 5,5 km/h (1 Bft) NO 1,00 h 0,508 mm 5,1 UV-I 798 W/m 11,8 C 21,6 C 10,9 km/h (2 Bft) 99,14 %
17.08.2016 14:00 22,2 C 50 % 1011,1 hPa 0,0 l/m 3,8 km/h (1 Bft) N-NO 0,97 h 0,508 mm 4,4 UV-I 743 W/m 11,4 C 22,2 C 7,8 km/h (2 Bft) 98,55 %
17.08.2016 15:00 22,8 C 50 % 1010,7 hPa 0,0 l/m 5,0 km/h (1 Bft) N-NO 0,90 h 0,458 mm 3,4 UV-I 642 W/m 11,6 C 22,6 C 9,5 km/h (2 Bft) 99,32 %
17.08.2016 16:00 23,1 C 50 % 1010,3 hPa 0,0 l/m 5,8 km/h (1 Bft) NO 1,00 h 0,431 mm 2,2 UV-I 544 W/m 12,1 C 22,9 C 10,1 km/h (2 Bft) 98,44 %
17.08.2016 17:00 23,0 C 50 % 1010,0 hPa 0,0 l/m 3,5 km/h (1 Bft) O-NO 1,00 h 0,356 mm 1,1 UV-I 379 W/m 11,9 C 23,0 C 6,5 km/h (2 Bft) 99,38 %
17.08.2016 18:00 22,6 C 51 % 1009,7 hPa 0,0 l/m 3,3 km/h (1 Bft) N-NO 1,00 h 0,254 mm 0,6 UV-I 202 W/m 11,8 C 22,6 C 5,8 km/h (2 Bft) 98,22 %
17.08.2016 19:00 21,1 C 60 % 1009,7 hPa 0,0 l/m 3,8 km/h (1 Bft) O-SO 0,10 h 0,152 mm 0,0 UV-I 51 W/m 12,9 C 21,1 C 5,5 km/h (1 Bft) 99,45 %
17.08.2016 20:00 18,6 C 68 % 1010,1 hPa 0,0 l/m 4,4 km/h (1 Bft) O 0,07 h 0,051 mm 0,0 UV-I 7 W/m 12,6 C 18,6 C 6,8 km/h (2 Bft) 97,81 %
17.08.2016 21:00 17,4 C 74 % 1010,4 hPa 0,0 l/m 2,8 km/h (1 Bft) SO 0,00 h 0,026 mm 0,0 UV-I 0 W/m 12,7 C 17,4 C 4,9 km/h (1 Bft) 99,57 %
17.08.2016 22:00 15,7 C 83 % 1010,2 hPa 0,0 l/m 0,8 km/h (0 Bft) SO 0,00 h 0,025 mm 0,0 UV-I 0 W/m 12,9 C 15,7 C 1,8 km/h (1 Bft) 98,27 %
17.08.2016 23:00 14,7 C 87 % 1010,1 hPa 0,0 l/m 1,5 km/h (1 Bft) SO 0,00 h 0,000 mm 0,0 UV-I 0 W/m 12,6 C 14,7 C 2,9 km/h (1 Bft) 99,42 %
18.08.2016 00:00 14,8 C 87 % 1010,1 hPa 0,0 l/m 1,1 km/h (1 Bft) O 0,00 h 0,000 mm 0,0 UV-I 0 W/m 12,8 C 14,8 C 2,6 km/h (1 Bft) 98,35 %
18.08.2016 01:00 14,2 C 90 % 1009,7 hPa 0,0 l/m 0,5 km/h (0 Bft) NO 0,00 h 0,000 mm 0,0 UV-I 0 W/m 12,5 C 14,2 C 1,2 km/h (1 Bft) 99,30 %
18.08.2016 02:00 13,3 C 92 % 1009,3 hPa 0,0 l/m 0,1 km/h (0 Bft) N 0,00 h 0,000 mm 0,0 UV-I 0 W/m 12,0 C 13,3 C 0,3 km/h (0 Bft) 98,44 %
18.08.2016 03:00 12,8 C 93 % 1009,3 hPa 0,0 l/m 1,0 km/h (0 Bft) SO 0,00 h 0,000 mm 0,0 UV-I 0 W/m 11,7 C 12,8 C 2,3 km/h (1 Bft) 99,44 %
18.08.2016 04:00 12,4 C 94 % 1009,1 hPa 0,0 l/m 1,1 km/h (1 Bft) SO 0,00 h 0,000 mm 0,0 UV-I 0 W/m 11,4 C 12,4 C 2,4 km/h (1 Bft) 98,41 %
18.08.2016 05:00 11,9 C 94 % 1009,1 hPa 0,0 l/m 0,4 km/h (0 Bft) SO 0,00 h 0,000 mm 0,0 UV-I 4 W/m 11,0 C 11,9 C 1,0 km/h (0 Bft) 99,32 %
18.08.2016 06:00 11,7 C 95 % 1009,3 hPa 0,0 l/m 0,6 km/h (0 Bft) SO 0,13 h 0,000 mm 0,0 UV-I 34 W/m 10,9 C 11,7 C 1,7 km/h (1 Bft) 98,19 %
18.08.2016 07:00 13,3 C 94 % 1009,5 hPa 0,0 l/m 2,0 km/h (1 Bft) S 0,73 h 0,025 mm 0,0 UV-I 138 W/m 12,3 C 13,3 C 3,9 km/h (1 Bft) 99,29 %
18.08.2016 08:00 15,5 C 87 % 1009,4 hPa 0,0 l/m 3,1 km/h (1 Bft) NO 0,83 h 0,077 mm 0,8 UV-I 251 W/m 13,3 C 15,5 C 5,2 km/h (1 Bft) 97,98 %
18.08.2016 09:00 17,2 C 83 % 1009,5 hPa 0,0 l/m 2,0 km/h (1 Bft) NO 0,57 h 0,127 mm 1,6 UV-I 365 W/m 14,3 C 17,2 C 4,4 km/h (1 Bft) 99,51 %
18.08.2016 10:00 19,3 C 78 % 1009,3 hPa 0,0 l/m 2,5 km/h (1 Bft) NO 0,87 h 0,203 mm 2,8 UV-I 561 W/m 15,3 C 19,3 C 5,0 km/h (1 Bft) 98,00 %
18.08.2016 11:00 21,2 C 70 % 1009,3 hPa 0,0 l/m 3,0 km/h (1 Bft) S-SW 1,00 h 0,330 mm 4,0 UV-I 724 W/m 15,6 C 21,2 C 6,1 km/h (2 Bft) 99,61 %
18.08.2016 12:00 21,3 C 66 % 1009,3 hPa 0,0 l/m 7,0 km/h (2 Bft) SW 0,03 h 0,406 mm 1,9 UV-I 242 W/m 14,7 C 20,8 C 11,9 km/h (2 Bft) 97,99 %
18.08.2016 13:00 22,1 C 65 % 1008,9 hPa 0,0 l/m 11,4 km/h (2 Bft) S-SW 0,73 h 0,204 mm 4,5 UV-I 658 W/m 15,0 C 20,6 C 19,1 km/h (3 Bft) 99,38 %
18.08.2016 14:00 22,8 C 61 % 1008,5 hPa 0,0 l/m 10,9 km/h (2 Bft) S 1,00 h 0,457 mm 4,5 UV-I 757 W/m 14,8 C 21,6 C 18,0 km/h (3 Bft) 98,21 %
18.08.2016 15:00 23,7 C 57 % 1008,0 hPa 0,0 l/m 8,8 km/h (2 Bft) W-SW 1,00 h 0,508 mm 3,5 UV-I 662 W/m 14,6 C 23,1 C 15,4 km/h (3 Bft) 99,37 %
18.08.2016 16:00 24,0 C 56 % 1007,6 hPa 0,0 l/m 5,4 km/h (1 Bft) W-SW 0,67 h 0,457 mm 2,0 UV-I 399 W/m 14,8 C 23,8 C 9,7 km/h (2 Bft) 98,34 %
18.08.2016 17:00 16,4 C 85 % 1008,8 hPa 9,6 l/m 11,0 km/h (2 Bft) W-SW 0,00 h 0,279 mm 0,0 UV-I 18 W/m 13,8 C 14,9 C 17,9 km/h (3 Bft) 98,76 %
18.08.2016 18:00 15,9 C 93 % 1008,8 hPa 0,0 l/m 3,9 km/h (1 Bft) O-SO 0,00 h 0,026 mm 0,0 UV-I 66 W/m 14,8 C 15,9 C 6,2 km/h (2 Bft) 98,00 %
18.08.2016 19:00 16,2 C 93 % 1008,8 hPa 0,0 l/m 1,1 km/h (1 Bft) SO 0,13 h 0,051 mm 0,0 UV-I 28 W/m 15,1 C 16,2 C 2,8 km/h (1 Bft) 99,29 %
18.08.2016 20:00 15,8 C 95 % 1009,2 hPa 0,0 l/m 1,0 km/h (0 Bft) S 0,03 h 0,025 mm 0,0 UV-I 10 W/m 15,0 C 15,8 C 2,6 km/h (1 Bft) 98,11 %
18.08.2016 21:00 15,2 C 96 % 1009,4 hPa 0,0 l/m 1,6 km/h (1 Bft) O-SO 0,00 h 0,000 mm 0,0 UV-I 0 W/m 14,6 C 15,2 C 2,9 km/h (1 Bft) 99,85 %
18.08.2016 22:00 15,1 C 97 % 1010,0 hPa 0,0 l/m 1,6 km/h (1 Bft) SO 0,00 h 0,000 mm 0,0 UV-I 0 W/m 14,6 C 15,1 C 2,9 km/h (1 Bft) 98,19 %
18.08.2016 23:00 15,1 C 97 % 1010,3 hPa 0,0 l/m 1,8 km/h (1 Bft) O 0,00 h 0,000 mm 0,0 UV-I 0 W/m 14,6 C 15,1 C 3,5 km/h (1 Bft) 99,43 %
19.08.2016 00:00 15,1 C 97 % 1010,6 hPa 0,0 l/m 2,2 km/h (1 Bft) S 0,00 h 0,000 mm 0,0 UV-I 0 W/m 14,6 C 15,1 C 3,9 km/h (1 Bft) 97,85 %
19.08.2016 01:00 15,5 C 96 % 1010,7 hPa 0,0 l/m 3,2 km/h (1 Bft) S 0,00 h 0,000 mm 0,0 UV-I 0 W/m 14,9 C 15,5 C 4,5 km/h (1 Bft) 99,19 %
19.08.2016 02:00 15,8 C 95 % 1010,5 hPa 0,0 l/m 4,9 km/h (1 Bft) S-SW 0,00 h 0,000 mm 0,0 UV-I 0 W/m 15,0 C 15,8 C 7,3 km/h (2 Bft) 98,04 %
19.08.2016 03:00 15,8 C 94 % 1010,3 hPa 0,0 l/m 1,7 km/h (1 Bft) S-SW 0,00 h 0,000 mm 0,0 UV-I 0 W/m 14,9 C 15,8 C 3,0 km/h (1 Bft) 99,74 %
19.08.2016 04:00 15,6 C 95 % 1010,2 hPa 0,0 l/m 0,9 km/h (0 Bft) S 0,00 h 0,000 mm 0,0 UV-I 0 W/m 14,8 C 15,6 C 2,3 km/h (1 Bft) 97,95 %
19.08.2016 05:00 15,4 C 96 % 1010,3 hPa 0,0 l/m 0,4 km/h (0 Bft) S 0,00 h 0,000 mm 0,0 UV-I 0 W/m 14,7 C 15,4 C 1,1 km/h (0 Bft) 99,36 %
19.08.2016 06:00 15,3 C 96 % 1010,5 hPa 0,0 l/m 1,2 km/h (1 Bft) O-SO 0,00 h 0,000 mm 0,0 UV-I 15 W/m 14,7 C 15,3 C 2,2 km/h (1 Bft) 98,15 %
19.08.2016 07:00 15,9 C 96 % 1010,9 hPa 0,0 l/m 0,1 km/h (0 Bft) N 0,00 h 0,000 mm 0,0 UV-I 62 W/m 15,3 C 15,9 C 0,5 km/h (0 Bft) 99,28 %
19.08.2016 08:00 17,2 C 91 % 1011,2 hPa 0,0 l/m 2,2 km/h (1 Bft) O-SO 0,47 h 0,025 mm 0,9 UV-I 237 W/m 15,8 C 17,2 C 4,1 km/h (1 Bft) 97,86 %
19.08.2016 09:00 18,5 C 86 % 1011,5 hPa 0,0 l/m 2,8 km/h (1 Bft) W-SW 0,07 h 0,127 mm 1,2 UV-I 258 W/m 16,2 C 18,5 C 5,0 km/h (1 Bft) 99,41 %
19.08.2016 10:00 18,9 C 84 % 1011,8 hPa 0,0 l/m 1,9 km/h (1 Bft) W 0,27 h 0,153 mm 2,0 UV-I 310 W/m 16,2 C 18,9 C 4,1 km/h (1 Bft) 98,30 %
19.08.2016 11:00 20,6 C 79 % 1011,9 hPa 0,0 l/m 2,7 km/h (1 Bft) NW 0,93 h 0,203 mm 4,2 UV-I 623 W/m 16,8 C 20,6 C 6,5 km/h (2 Bft) 99,63 %
19.08.2016 12:00 21,5 C 73 % 1011,9 hPa 0,2 l/m 3,4 km/h (1 Bft) N 0,90 h 0,381 mm 4,6 UV-I 637 W/m 16,6 C 21,5 C 6,8 km/h (2 Bft) 98,36 %
19.08.2016 13:00 22,2 C 71 % 1011,7 hPa 0,0 l/m 2,6 km/h (1 Bft) N-NO 0,97 h 0,381 mm 5,2 UV-I 717 W/m 16,7 C 22,2 C 5,6 km/h (1 Bft) 99,51 %
19.08.2016 14:00 23,2 C 66 % 1011,4 hPa 0,0 l/m 3,4 km/h (1 Bft) W 0,90 h 0,457 mm 4,4 UV-I 739 W/m 16,5 C 23,2 C 6,6 km/h (2 Bft) 98,30 %
19.08.2016 15:00 24,1 C 64 % 1011,0 hPa 0,0 l/m 4,0 km/h (1 Bft) N-NW 1,00 h 0,457 mm 3,6 UV-I 656 W/m 16,7 C 24,0 C 7,3 km/h (2 Bft) 98,91 %
19.08.2016 16:00 23,8 C 64 % 1010,7 hPa 0,0 l/m 3,1 km/h (1 Bft) N-NO 0,53 h 0,407 mm 2,0 UV-I 331 W/m 16,5 C 23,8 C 6,0 km/h (2 Bft) 98,19 %
19.08.2016 17:00 24,5 C 60 % 1010,7 hPa 0,0 l/m 4,3 km/h (1 Bft) O-NO 1,00 h 0,228 mm 1,2 UV-I 367 W/m 16,3 C 24,5 C 7,6 km/h (2 Bft) 99,09 %
19.08.2016 18:00 24,1 C 62 % 1010,5 hPa 0,0 l/m 4,0 km/h (1 Bft) O-NO 0,83 h 0,254 mm 0,5 UV-I 177 W/m 16,3 C 24,1 C 6,6 km/h (2 Bft) 98,79 %
19.08.2016 19:00 22,8 C 68 % 1010,6 hPa 0,0 l/m 3,1 km/h (1 Bft) O-NO 0,10 h 0,127 mm 0,0 UV-I 37 W/m 16,5 C 22,8 C 4,8 km/h (1 Bft) 98,31 %
19.08.2016 20:00 20,8 C 76 % 1010,9 hPa 0,0 l/m 2,5 km/h (1 Bft) O-NO 0,00 h 0,051 mm 0,0 UV-I 6 W/m 16,4 C 20,8 C 3,7 km/h (1 Bft) 98,59 %
19.08.2016 21:00 19,8 C 79 % 1011,3 hPa 0,0 l/m 3,8 km/h (1 Bft) O-NO 0,00 h 0,026 mm 0,0 UV-I 0 W/m 16,1 C 19,8 C 6,0 km/h (2 Bft) 98,51 %
19.08.2016 22:00 18,3 C 86 % 1011,5 hPa 0,0 l/m 2,1 km/h (1 Bft) O-SO 0,00 h 0,025 mm 0,0 UV-I 0 W/m 15,9 C 18,3 C 4,0 km/h (1 Bft) 98,60 %
19.08.2016 23:00 17,0 C 92 % 1011,7 hPa 0,0 l/m 1,4 km/h (1 Bft) O-SO 0,00 h 0,000 mm 0,0 UV-I 0 W/m 15,6 C 17,0 C 2,6 km/h (1 Bft) 98,24 %
20.08.2016 00:00 16,6 C 92 % 1012,1 hPa 0,0 l/m 0,4 km/h (0 Bft) O-SO 0,00 h 0,000 mm 0,0 UV-I 0 W/m 15,3 C 16,6 C 1,3 km/h (1 Bft) 99,06 %
20.08.2016 01:00 15,7 C 93 % 1012,2 hPa 0,0 l/m 0,9 km/h (0 Bft) O-SO 0,00 h 0,000 mm 0,0 UV-I 0 W/m 14,6 C 15,7 C 1,8 km/h (1 Bft) 98,95 %
20.08.2016 02:00 15,2 C 94 % 1012,1 hPa 0,0 l/m 0,7 km/h (0 Bft) O-SO 0,00 h 0,000 mm 0,0 UV-I 0 W/m 14,3 C 15,2 C 1,3 km/h (1 Bft) 98,63 %
20.08.2016 03:00 14,7 C 95 % 1012,3 hPa 0,0 l/m 1,4 km/h (1 Bft) O-SO 0,00 h 0,000 mm 0,0 UV-I 0 W/m 13,9 C 14,7 C 2,3 km/h (1 Bft) 98,32 %
20.08.2016 04:00 15,1 C 95 % 1012,4 hPa 0,0 l/m 0,9 km/h (0 Bft) O-SO 0,00 h 0,000 mm 0,0 UV-I 0 W/m 14,3 C 15,1 C 2,0 km/h (1 Bft) 98,93 %
20.08.2016 05:00 15,5 C 94 % 1012,9 hPa 0,0 l/m 1,0 km/h (0 Bft) S-SO 0,00 h 0,000 mm 0,0 UV-I 0 W/m 14,6 C 15,5 C 2,1 km/h (1 Bft) 98,53 %
20.08.2016 06:00 15,5 C 94 % 1013,4 hPa 0,0 l/m 0,5 km/h (0 Bft) S-SO 0,00 h 0,000 mm 0,0 UV-I 14 W/m 14,6 C 15,5 C 1,2 km/h (1 Bft) 98,75 %
20.08.2016 07:00 16,1 C 94 % 1013,7 hPa 0,0 l/m 1,2 km/h (1 Bft) S 0,10 h 0,000 mm 0,4 UV-I 83 W/m 15,1 C 16,1 C 2,5 km/h (1 Bft) 98,37 %
20.08.2016 08:00 18,2 C 88 % 1013,8 hPa 0,0 l/m 1,2 km/h (1 Bft) O-SO 0,30 h 0,051 mm 0,7 UV-I 179 W/m 16,1 C 18,2 C 2,3 km/h (1 Bft) 98,92 %
20.08.2016 09:00 19,8 C 82 % 1013,9 hPa 0,0 l/m 2,9 km/h (1 Bft) NO 0,77 h 0,101 mm 1,9 UV-I 388 W/m 16,6 C 19,8 C 4,9 km/h (1 Bft) 98,51 %
20.08.2016 10:00 21,9 C 77 % 1013,8 hPa 0,0 l/m 5,2 km/h (1 Bft) NO 1,00 h 0,229 mm 3,4 UV-I 605 W/m 17,6 C 21,8 C 9,1 km/h (2 Bft) 99,07 %
20.08.2016 11:00 23,4 C 70 % 1013,5 hPa 0,0 l/m 6,3 km/h (2 Bft) O-NO 1,00 h 0,381 mm 4,7 UV-I 712 W/m 17,6 C 23,2 C 10,9 km/h (2 Bft) 98,61 %
20.08.2016 12:00 24,8 C 66 % 1013,2 hPa 0,0 l/m 7,1 km/h (2 Bft) NO 1,00 h 0,457 mm 5,5 UV-I 770 W/m 17,9 C 24,5 C 12,4 km/h (3 Bft) 99,23 %
20.08.2016 13:00 26,2 C 61 % 1012,9 hPa 0,0 l/m 8,1 km/h (2 Bft) NO 1,00 h 0,508 mm 5,6 UV-I 772 W/m 18,0 C 25,8 C 14,2 km/h (3 Bft) 98,23 %
20.08.2016 14:00 26,8 C 56 % 1012,5 hPa 0,0 l/m 8,7 km/h (2 Bft) NO 1,00 h 0,534 mm 4,7 UV-I 686 W/m 17,1 C 26,4 C 14,1 km/h (3 Bft) 99,15 %
20.08.2016 15:00 27,6 C 49 % 1012,0 hPa 0,0 l/m 9,1 km/h (2 Bft) NO 1,00 h 0,508 mm 3,7 UV-I 627 W/m 16,0 C 27,2 C 15,3 km/h (3 Bft) 98,66 %
20.08.2016 16:00 27,8 C 44 % 1011,6 hPa 0,0 l/m 8,7 km/h (2 Bft) N-NO 0,90 h 0,482 mm 2,2 UV-I 465 W/m 14,4 C 27,5 C 14,4 km/h (3 Bft) 98,79 %
20.08.2016 17:00 26,6 C 49 % 1011,5 hPa 0,0 l/m 7,0 km/h (2 Bft) NO 0,17 h 0,381 mm 0,9 UV-I 194 W/m 15,0 C 26,4 C 11,6 km/h (2 Bft) 98,08 %
20.08.2016 18:00 25,3 C 54 % 1011,2 hPa 0,0 l/m 4,9 km/h (1 Bft) O-NO 0,00 h 0,178 mm 0,1 UV-I 92 W/m 15,4 C 25,3 C 7,5 km/h (2 Bft) 99,49 %
20.08.2016 19:00 23,7 C 60 % 1011,4 hPa 0,0 l/m 1,0 km/h (0 Bft) O-NO 0,00 h 0,102 mm 0,0 UV-I 28 W/m 15,3 C 23,7 C 2,1 km/h (1 Bft) 98,22 %
20.08.2016 20:00 22,5 C 66 % 1011,7 hPa 0,0 l/m 0,9 km/h (0 Bft) NO 0,00 h 0,025 mm 0,0 UV-I 0 W/m 15,8 C 22,5 C 2,2 km/h (1 Bft) 99,12 %
20.08.2016 21:00 22,1 C 69 % 1012,2 hPa 0,0 l/m 1,7 km/h (1 Bft) NW 0,00 h 0,025 mm 0,0 UV-I 0 W/m 16,1 C 22,1 C 3,9 km/h (1 Bft) 98,22 %
20.08.2016 22:00 21,6 C 74 % 1013,0 hPa 0,4 l/m 11,8 km/h (2 Bft) SW 0,00 h 0,026 mm 0,0 UV-I 0 W/m 16,8 C 20,0 C 18,1 km/h (3 Bft) 99,36 %
20.08.2016 23:00 19,0 C 91 % 1013,5 hPa 0,8 l/m 14,1 km/h (3 Bft) W-SW 0,00 h 0,051 mm 0,0 UV-I 0 W/m 17,4 C 16,4 C 21,2 km/h (4 Bft) 98,15 %
21.08.2016 00:00 18,5 C 93 % 1013,9 hPa 0,0 l/m 9,4 km/h (2 Bft) SW 0,00 h 0,000 mm 0,0 UV-I 0 W/m 17,4 C 17,2 C 14,7 km/h (3 Bft) 99,23 %
21.08.2016 01:00 18,4 C 92 % 1013,9 hPa 0,0 l/m 8,5 km/h (2 Bft) W-SW 0,00 h 0,000 mm 0,0 UV-I 0 W/m 17,2 C 17,5 C 13,4 km/h (3 Bft) 98,39 %
21.08.2016 02:00 17,9 C 94 % 1014,0 hPa 0,6 l/m 9,1 km/h (2 Bft) SW 0,00 h 0,000 mm 0,0 UV-I 0 W/m 16,9 C 16,6 C 14,7 km/h (3 Bft) 99,33 %
21.08.2016 03:00 17,4 C 95 % 1014,0 hPa 1,0 l/m 9,0 km/h (2 Bft) SW 0,00 h 0,000 mm 0,0 UV-I 0 W/m 16,6 C 16,2 C 14,9 km/h (3 Bft) 98,12 %
21.08.2016 04:00 16,9 C 95 % 1014,2 hPa 3,0 l/m 5,0 km/h (1 Bft) SW 0,00 h 0,000 mm 0,0 UV-I 0 W/m 16,2 C 16,9 C 7,8 km/h (2 Bft) 99,41 %
21.08.2016 05:00 16,8 C 96 % 1014,8 hPa 2,4 l/m 6,4 km/h (2 Bft) SW 0,00 h 0,000 mm 0,0 UV-I 0 W/m 16,2 C 16,4 C 10,1 km/h (2 Bft) 97,93 %
21.08.2016 06:00 16,7 C 96 % 1015,9 hPa 6,6 l/m 12,6 km/h (3 Bft) W-SW 0,00 h 0,000 mm 0,0 UV-I 6 W/m 16,1 C 14,1 C 19,4 km/h (3 Bft) 99,26 %
21.08.2016 07:00 14,8 C 93 % 1017,4 hPa 1,4 l/m 19,1 km/h (3 Bft) SW 0,00 h 0,000 mm 0,0 UV-I 23 W/m 13,6 C 9,8 C 29,4 km/h (5 Bft) 97,91 %
21.08.2016 08:00 14,6 C 92 % 1018,2 hPa 0,0 l/m 15,2 km/h (3 Bft) SW 0,00 h 0,025 mm 0,5 UV-I 93 W/m 13,3 C 10,7 C 23,4 km/h (4 Bft) 99,24 %
21.08.2016 09:00 15,8 C 89 % 1018,1 hPa 0,0 l/m 16,2 km/h (3 Bft) SW 0,00 h 0,077 mm 1,1 UV-I 191 W/m 14,0 C 11,8 C 25,3 km/h (4 Bft) 98,31 %
21.08.2016 10:00 17,1 C 84 % 1018,5 hPa 0,0 l/m 11,8 km/h (2 Bft) W-SW 0,37 h 0,127 mm 1,7 UV-I 292 W/m 14,3 C 14,9 C 18,7 km/h (3 Bft) 99,17 %
21.08.2016 11:00 17,3 C 81 % 1018,8 hPa 0,0 l/m 6,7 km/h (2 Bft) W-SW 0,00 h 0,177 mm 1,6 UV-I 216 W/m 13,9 C 16,9 C 12,5 km/h (3 Bft) 98,31 %
21.08.2016 12:00 17,8 C 80 % 1018,8 hPa 0,0 l/m 6,7 km/h (2 Bft) W-SW 0,00 h 0,127 mm 2,1 UV-I 277 W/m 14,3 C 17,4 C 11,6 km/h (2 Bft) 99,57 %
21.08.2016 13:00 18,6 C 76 % 1018,7 hPa 0,0 l/m 9,0 km/h (2 Bft) W-SW 0,37 h 0,178 mm 3,1 UV-I 409 W/m 14,2 C 17,5 C 14,4 km/h (3 Bft) 97,99 %
21.08.2016 14:00 19,0 C 72 % 1018,7 hPa 0,0 l/m 8,2 km/h (2 Bft) W-SW 0,00 h 0,254 mm 2,1 UV-I 277 W/m 13,8 C 18,1 C 15,0 km/h (3 Bft) 99,49 %
21.08.2016 15:00 18,4 C 75 % 1018,7 hPa 0,0 l/m 8,2 km/h (2 Bft) W-SW 0,00 h 0,178 mm 1,4 UV-I 209 W/m 13,9 C 17,5 C 14,0 km/h (3 Bft) 98,20 %
21.08.2016 16:00 18,3 C 76 % 1019,0 hPa 0,0 l/m 9,5 km/h (2 Bft) W-SW 0,00 h 0,152 mm 0,8 UV-I 159 W/m 14,0 C 17,0 C 15,8 km/h (3 Bft) 99,26 %
21.08.2016 17:00 18,5 C 75 % 1019,0 hPa 0,0 l/m 10,6 km/h (2 Bft) W-SW 0,17 h 0,127 mm 0,7 UV-I 199 W/m 14,0 C 16,8 C 17,1 km/h (3 Bft) 97,97 %
21.08.2016 18:00 17,9 C 78 % 1019,3 hPa 0,0 l/m 10,0 km/h (2 Bft) W-SW 0,03 h 0,153 mm 0,3 UV-I 95 W/m 14,1 C 16,4 C 15,5 km/h (3 Bft) 99,42 %
21.08.2016 19:00 17,5 C 79 % 1019,7 hPa 0,0 l/m 7,8 km/h (2 Bft) W-SW 0,07 h 0,076 mm 0,0 UV-I 26 W/m 13,9 C 16,8 C 12,8 km/h (3 Bft) 98,00 %
21.08.2016 20:00 16,3 C 74 % 1020,8 hPa 0,0 l/m 3,4 km/h (1 Bft) W-SW 0,00 h 0,051 mm 0,0 UV-I 0 W/m 11,6 C 16,3 C 6,5 km/h (2 Bft) 99,32 %
21.08.2016 21:00 15,4 C 78 % 1021,4 hPa 0,0 l/m 3,5 km/h (1 Bft) W 0,00 h 0,025 mm 0,0 UV-I 0 W/m 11,6 C 15,4 C 5,6 km/h (1 Bft) 98,31 %
21.08.2016 22:00 14,6 C 84 % 1021,7 hPa 0,0 l/m 5,0 km/h (1 Bft) SW 0,00 h 0,026 mm 0,0 UV-I 0 W/m 11,9 C 14,5 C 7,5 km/h (2 Bft) 99,65 %
21.08.2016 23:00 14,4 C 87 % 1022,0 hPa 0,0 l/m 5,8 km/h (2 Bft) W-SW 0,00 h 0,025 mm 0,0 UV-I 0 W/m 12,2 C 14,3 C 8,7 km/h (2 Bft) 97,98 %
Min-Datum _ 18.08.16 20.08.16 18.08.16 - 15.08.16 - - - - - 17.08.16 21.08.16 15.08.16 17.08.16
_ Min-Zeit 06:26 16:30 16:46 - 03:36 - - - - - 12:04 07:18 03:36 08:58
Minimum _ 11,3 C 40 % 1007,3 hPa - 0,0 km/h (0 Bft) - - - - - 9,9 C 7,4 C 0,0 km/h (0 Bft) 91,30 %
Max-Datum _ 20.08.16 16.08.16 21.08.16 18.08.16 18.08.16 - 15.08.16 20.08.16 19.08.16 19.08.16 20.08.16 20.08.16 21.08.16 15.08.16
_ Max-Zeit 15:54 06:44 23:24 17:14 17:10 - 06:10 14:00 13:20 14:38 13:48 16:30 07:18 00:26
Maximum _ 28,2 C 98 % 1022,1 hPa 9,6 l/m 33,0 km/h
W-SW (5 Bft)
- 0,03 h 0,534 mm 5,9 UV-I 973 W/m 19,1 C 28,0 C 53,1 km/h
W-SW (7 Bft)
100,00 %
Durchschnitt _ 18,8 C 79 % 1013,4 hPa #26,0 l/m 4,5 km/h (1 Bft) O-NO #53:04 h #23,623 mm 2,5 UV-I 333 W/m 14,7 C 18,5 C 7,6 km/h (2 Bft) 98,73 %